sensor_id;sensor_type;location;lat;lon;timestamp;temperature;humidity
77700;DHT22;66867;42.658;23.320;2023-05-14T00:00:00;15.4;61
77700;DHT22;66867;42.658;23.320;2023-05-14T00:01:00;15.4;61
77700;DHT22;66867;42.658;23.320;2023-05-14T00:02:00;15.4;61
77700;DHT22;66867;42.658;23.320;2023-05-14T00:03:00;15.4;61
77700;DHT22;66867;42.658;23.320;2023-05-14T00:04:01;15.4;61
77700;DHT22;66867;42.658;23.320;2023-05-14T00:05:00;15.4;61
77700;DHT22;66867;42.658;23.320;2023-05-14T00:06:00;15.4;61
77700;DHT22;66867;42.658;23.320;2023-05-14T00:07:00;15.4;61
77700;DHT22;66867;42.658;23.320;2023-05-14T00:08:00;15.4;61
77700;DHT22;66867;42.658;23.320;2023-05-14T00:09:00;15.4;61
77700;DHT22;66867;42.658;23.320;2023-05-14T00:10:00;15.4;61
77700;DHT22;66867;42.658;23.320;2023-05-14T00:11:00;15.5;60
77700;DHT22;66867;42.658;23.320;2023-05-14T00:12:00;15.5;60
77700;DHT22;66867;42.658;23.320;2023-05-14T00:13:00;15.5;60
77700;DHT22;66867;42.658;23.320;2023-05-14T00:14:00;15.5;61
77700;DHT22;66867;42.658;23.320;2023-05-14T00:15:00;15.5;61
77700;DHT22;66867;42.658;23.320;2023-05-14T00:16:00;15.5;61
77700;DHT22;66867;42.658;23.320;2023-05-14T00:17:00;15.5;61
77700;DHT22;66867;42.658;23.320;2023-05-14T00:18:00;15.5;61
77700;DHT22;66867;42.658;23.320;2023-05-14T00:19:00;15.5;61
77700;DHT22;66867;42.658;23.320;2023-05-14T00:20:00;15.5;61
77700;DHT22;66867;42.658;23.320;2023-05-14T00:21:00;15.5;61
77700;DHT22;66867;42.658;23.320;2023-05-14T00:22:00;15.4;61
77700;DHT22;66867;42.658;23.320;2023-05-14T00:23:00;15.4;61
77700;DHT22;66867;42.658;23.320;2023-05-14T00:24:00;15.5;61
77700;DHT22;66867;42.658;23.320;2023-05-14T00:25:00;15.5;61
77700;DHT22;66867;42.658;23.320;2023-05-14T00:26:00;15.5;61
77700;DHT22;66867;42.658;23.320;2023-05-14T00:27:00;15.5;61
77700;DHT22;66867;42.658;23.320;2023-05-14T00:28:00;15.4;61
77700;DHT22;66867;42.658;23.320;2023-05-14T00:29:00;15.4;61
77700;DHT22;66867;42.658;23.320;2023-05-14T00:30:01;15.4;61
77700;DHT22;66867;42.658;23.320;2023-05-14T00:31:00;15.4;61
77700;DHT22;66867;42.658;23.320;2023-05-14T00:32:01;15.4;61
77700;DHT22;66867;42.658;23.320;2023-05-14T00:33:00;15.4;61
77700;DHT22;66867;42.658;23.320;2023-05-14T00:34:00;15.4;62
77700;DHT22;66867;42.658;23.320;2023-05-14T00:35:00;15.4;62
77700;DHT22;66867;42.658;23.320;2023-05-14T00:36:00;15.4;62
77700;DHT22;66867;42.658;23.320;2023-05-14T00:37:00;15.4;62
77700;DHT22;66867;42.658;23.320;2023-05-14T00:38:01;15.4;61
77700;DHT22;66867;42.658;23.320;2023-05-14T00:39:00;15.4;61
77700;DHT22;66867;42.658;23.320;2023-05-14T00:40:00;15.3;61
77700;DHT22;66867;42.658;23.320;2023-05-14T00:41:00;15.3;61
77700;DHT22;66867;42.658;23.320;2023-05-14T00:42:00;15.3;61
77700;DHT22;66867;42.658;23.320;2023-05-14T00:43:00;15.3;61
77700;DHT22;66867;42.658;23.320;2023-05-14T00:44:00;15.3;62
77700;DHT22;66867;42.658;23.320;2023-05-14T00:45:00;15.3;62
77700;DHT22;66867;42.658;23.320;2023-05-14T00:46:00;15.3;61
77700;DHT22;66867;42.658;23.320;2023-05-14T00:47:00;15.3;61
77700;DHT22;66867;42.658;23.320;2023-05-14T00:48:00;15.3;61
77700;DHT22;66867;42.658;23.320;2023-05-14T00:49:00;15.3;61
77700;DHT22;66867;42.658;23.320;2023-05-14T00:50:01;15.3;61
77700;DHT22;66867;42.658;23.320;2023-05-14T00:51:00;15.3;61
77700;DHT22;66867;42.658;23.320;2023-05-14T00:52:00;15.3;61
77700;DHT22;66867;42.658;23.320;2023-05-14T00:53:00;15.3;61
77700;DHT22;66867;42.658;23.320;2023-05-14T00:54:00;15.3;61
77700;DHT22;66867;42.658;23.320;2023-05-14T00:55:01;15.3;61
77700;DHT22;66867;42.658;23.320;2023-05-14T00:56:00;15.3;61
77700;DHT22;66867;42.658;23.320;2023-05-14T00:57:00;15.3;61
77700;DHT22;66867;42.658;23.320;2023-05-14T00:58:00;15.3;61
77700;DHT22;66867;42.658;23.320;2023-05-14T00:59:00;15.2;61
77700;DHT22;66867;42.658;23.320;2023-05-14T01:00:00;15.2;61
77700;DHT22;66867;42.658;23.320;2023-05-14T01:01:00;15.2;61
77700;DHT22;66867;42.658;23.320;2023-05-14T01:02:00;15.2;61
77700;DHT22;66867;42.658;23.320;2023-05-14T01:03:00;15.2;61
77700;DHT22;66867;42.658;23.320;2023-05-14T01:04:00;15.2;61
77700;DHT22;66867;42.658;23.320;2023-05-14T01:05:00;15.2;61
77700;DHT22;66867;42.658;23.320;2023-05-14T01:11:03;15.2;60
77700;DHT22;66867;42.658;23.320;2023-05-14T01:13:11;15.1;60
77700;DHT22;66867;42.658;23.320;2023-05-14T01:14:02;15.1;60
77700;DHT22;66867;42.658;23.320;2023-05-14T01:15:18;15.1;60
77700;DHT22;66867;42.658;23.320;2023-05-14T01:16:00;15.1;60
77700;DHT22;66867;42.658;23.320;2023-05-14T01:17:01;15.1;60
77700;DHT22;66867;42.658;23.320;2023-05-14T01:18:03;15.1;60
77700;DHT22;66867;42.658;23.320;2023-05-14T01:19:00;15.1;60
77700;DHT22;66867;42.658;23.320;2023-05-14T01:20:00;15.1;60
77700;DHT22;66867;42.658;23.320;2023-05-14T01:21:00;15.0;60
77700;DHT22;66867;42.658;23.320;2023-05-14T01:22:15;15.0;60
77700;DHT22;66867;42.658;23.320;2023-05-14T01:23:00;15.0;60
77700;DHT22;66867;42.658;23.320;2023-05-14T01:24:00;15.1;60
77700;DHT22;66867;42.658;23.320;2023-05-14T01:25:00;15.1;60
77700;DHT22;66867;42.658;23.320;2023-05-14T01:26:00;15.1;60
77700;DHT22;66867;42.658;23.320;2023-05-14T01:27:02;15.1;60
77700;DHT22;66867;42.658;23.320;2023-05-14T01:29:03;15.1;60
77700;DHT22;66867;42.658;23.320;2023-05-14T01:31:02;15.0;60
77700;DHT22;66867;42.658;23.320;2023-05-14T01:32:00;15.0;60
77700;DHT22;66867;42.658;23.320;2023-05-14T01:33:01;15.0;60
77700;DHT22;66867;42.658;23.320;2023-05-14T01:34:00;15.0;60
77700;DHT22;66867;42.658;23.320;2023-05-14T01:35:00;15.0;60
77700;DHT22;66867;42.658;23.320;2023-05-14T01:36:00;15.1;59
77700;DHT22;66867;42.658;23.320;2023-05-14T01:37:00;15.0;59
77700;DHT22;66867;42.658;23.320;2023-05-14T01:38:01;15.0;59
77700;DHT22;66867;42.658;23.320;2023-05-14T01:39:00;15.0;59
77700;DHT22;66867;42.658;23.320;2023-05-14T01:40:00;15.0;60
77700;DHT22;66867;42.658;23.320;2023-05-14T01:41:00;14.9;59
77700;DHT22;66867;42.658;23.320;2023-05-14T01:42:00;15.0;59
77700;DHT22;66867;42.658;23.320;2023-05-14T01:43:00;15.0;60
77700;DHT22;66867;42.658;23.320;2023-05-14T01:44:00;15.0;59
77700;DHT22;66867;42.658;23.320;2023-05-14T01:45:00;15.0;59
77700;DHT22;66867;42.658;23.320;2023-05-14T01:46:00;15.0;59
77700;DHT22;66867;42.658;23.320;2023-05-14T01:47:00;14.9;59
77700;DHT22;66867;42.658;23.320;2023-05-14T01:48:01;14.9;60
77700;DHT22;66867;42.658;23.320;2023-05-14T01:49:00;14.9;59
77700;DHT22;66867;42.658;23.320;2023-05-14T01:50:00;14.9;59
77700;DHT22;66867;42.658;23.320;2023-05-14T01:51:00;14.9;59
77700;DHT22;66867;42.658;23.320;2023-05-14T01:52:00;14.9;59
77700;DHT22;66867;42.658;23.320;2023-05-14T01:53:00;14.9;59
77700;DHT22;66867;42.658;23.320;2023-05-14T01:54:00;14.9;59
77700;DHT22;66867;42.658;23.320;2023-05-14T01:55:00;14.9;59
77700;DHT22;66867;42.658;23.320;2023-05-14T01:56:00;14.9;59
77700;DHT22;66867;42.658;23.320;2023-05-14T01:57:00;14.9;60
77700;DHT22;66867;42.658;23.320;2023-05-14T01:58:00;14.9;60
77700;DHT22;66867;42.658;23.320;2023-05-14T01:59:00;14.9;61
77700;DHT22;66867;42.658;23.320;2023-05-14T02:00:00;14.8;60
77700;DHT22;66867;42.658;23.320;2023-05-14T02:01:00;14.8;61
77700;DHT22;66867;42.658;23.320;2023-05-14T02:02:00;14.8;61
77700;DHT22;66867;42.658;23.320;2023-05-14T02:03:00;14.8;61
77700;DHT22;66867;42.658;23.320;2023-05-14T02:04:00;14.8;61
77700;DHT22;66867;42.658;23.320;2023-05-14T02:05:00;14.8;62
77700;DHT22;66867;42.658;23.320;2023-05-14T02:06:00;14.8;62
77700;DHT22;66867;42.658;23.320;2023-05-14T02:07:00;14.8;62
77700;DHT22;66867;42.658;23.320;2023-05-14T02:08:00;14.8;62
77700;DHT22;66867;42.658;23.320;2023-05-14T02:09:00;14.7;63
77700;DHT22;66867;42.658;23.320;2023-05-14T02:10:00;14.7;63
77700;DHT22;66867;42.658;23.320;2023-05-14T02:11:00;14.7;63
77700;DHT22;66867;42.658;23.320;2023-05-14T02:12:00;14.7;63
77700;DHT22;66867;42.658;23.320;2023-05-14T02:13:00;14.7;63
77700;DHT22;66867;42.658;23.320;2023-05-14T02:14:00;14.7;63
77700;DHT22;66867;42.658;23.320;2023-05-14T02:15:01;14.7;64
77700;DHT22;66867;42.658;23.320;2023-05-14T02:16:00;14.7;64
77700;DHT22;66867;42.658;23.320;2023-05-14T02:17:00;14.7;63
77700;DHT22;66867;42.658;23.320;2023-05-14T02:18:00;14.7;63
77700;DHT22;66867;42.658;23.320;2023-05-14T02:19:00;14.6;63
77700;DHT22;66867;42.658;23.320;2023-05-14T02:20:00;14.6;63
77700;DHT22;66867;42.658;23.320;2023-05-14T02:21:00;14.6;63
77700;DHT22;66867;42.658;23.320;2023-05-14T02:22:00;14.6;63
77700;DHT22;66867;42.658;23.320;2023-05-14T02:23:00;14.5;63
77700;DHT22;66867;42.658;23.320;2023-05-14T02:24:00;14.5;63
77700;DHT22;66867;42.658;23.320;2023-05-14T02:25:00;14.5;63
77700;DHT22;66867;42.658;23.320;2023-05-14T02:26:00;14.5;63
77700;DHT22;66867;42.658;23.320;2023-05-14T02:27:00;14.5;63
77700;DHT22;66867;42.658;23.320;2023-05-14T02:28:00;14.5;63
77700;DHT22;66867;42.658;23.320;2023-05-14T02:29:00;14.5;63
77700;DHT22;66867;42.658;23.320;2023-05-14T02:30:00;14.5;63
77700;DHT22;66867;42.658;23.320;2023-05-14T02:31:00;14.5;63
77700;DHT22;66867;42.658;23.320;2023-05-14T02:32:00;14.5;63
77700;DHT22;66867;42.658;23.320;2023-05-14T02:33:00;14.5;63
77700;DHT22;66867;42.658;23.320;2023-05-14T02:34:02;14.4;63
77700;DHT22;66867;42.658;23.320;2023-05-14T02:35:00;14.4;63
77700;DHT22;66867;42.658;23.320;2023-05-14T02:36:00;14.4;63
77700;DHT22;66867;42.658;23.320;2023-05-14T02:37:00;14.4;63
77700;DHT22;66867;42.658;23.320;2023-05-14T02:38:00;14.4;63
77700;DHT22;66867;42.658;23.320;2023-05-14T02:39:00;14.4;63
77700;DHT22;66867;42.658;23.320;2023-05-14T02:40:00;14.4;63
77700;DHT22;66867;42.658;23.320;2023-05-14T02:41:00;14.4;63
77700;DHT22;66867;42.658;23.320;2023-05-14T02:42:00;14.4;63
77700;DHT22;66867;42.658;23.320;2023-05-14T02:43:00;14.4;63
77700;DHT22;66867;42.658;23.320;2023-05-14T02:44:00;14.4;63
77700;DHT22;66867;42.658;23.320;2023-05-14T02:45:00;14.4;63
77700;DHT22;66867;42.658;23.320;2023-05-14T02:46:00;14.4;63
77700;DHT22;66867;42.658;23.320;2023-05-14T02:47:00;14.4;63
77700;DHT22;66867;42.658;23.320;2023-05-14T02:48:00;14.3;63
77700;DHT22;66867;42.658;23.320;2023-05-14T02:49:00;14.3;63
77700;DHT22;66867;42.658;23.320;2023-05-14T02:50:00;14.3;63
77700;DHT22;66867;42.658;23.320;2023-05-14T02:51:00;14.3;63
77700;DHT22;66867;42.658;23.320;2023-05-14T02:52:00;14.3;63
77700;DHT22;66867;42.658;23.320;2023-05-14T02:53:00;14.2;63
77700;DHT22;66867;42.658;23.320;2023-05-14T02:54:00;14.3;63
77700;DHT22;66867;42.658;23.320;2023-05-14T02:55:00;14.3;63
77700;DHT22;66867;42.658;23.320;2023-05-14T02:56:00;14.3;63
77700;DHT22;66867;42.658;23.320;2023-05-14T02:57:00;14.2;64
77700;DHT22;66867;42.658;23.320;2023-05-14T02:58:00;14.2;64
77700;DHT22;66867;42.658;23.320;2023-05-14T02:59:00;14.3;64
77700;DHT22;66867;42.658;23.320;2023-05-14T03:00:00;14.3;64
77700;DHT22;66867;42.658;23.320;2023-05-14T03:01:00;14.3;64
77700;DHT22;66867;42.658;23.320;2023-05-14T03:02:00;14.3;64
77700;DHT22;66867;42.658;23.320;2023-05-14T03:03:00;14.3;64
77700;DHT22;66867;42.658;23.320;2023-05-14T03:04:00;14.2;64
77700;DHT22;66867;42.658;23.320;2023-05-14T03:05:00;14.2;64
77700;DHT22;66867;42.658;23.320;2023-05-14T03:06:00;14.3;64
77700;DHT22;66867;42.658;23.320;2023-05-14T03:07:00;14.3;64
77700;DHT22;66867;42.658;23.320;2023-05-14T03:08:00;14.3;64
77700;DHT22;66867;42.658;23.320;2023-05-14T03:09:00;14.3;64
77700;DHT22;66867;42.658;23.320;2023-05-14T03:10:00;14.3;64
77700;DHT22;66867;42.658;23.320;2023-05-14T03:11:00;14.3;64
77700;DHT22;66867;42.658;23.320;2023-05-14T03:12:00;14.3;64
77700;DHT22;66867;42.658;23.320;2023-05-14T03:13:00;14.3;64
77700;DHT22;66867;42.658;23.320;2023-05-14T03:14:00;14.2;64
77700;DHT22;66867;42.658;23.320;2023-05-14T03:15:00;14.2;65
77700;DHT22;66867;42.658;23.320;2023-05-14T03:16:00;14.2;65
77700;DHT22;66867;42.658;23.320;2023-05-14T03:17:00;14.2;65
77700;DHT22;66867;42.658;23.320;2023-05-14T03:18:00;14.1;65
77700;DHT22;66867;42.658;23.320;2023-05-14T03:19:00;14.2;65
77700;DHT22;66867;42.658;23.320;2023-05-14T03:20:00;14.2;65
77700;DHT22;66867;42.658;23.320;2023-05-14T03:21:00;14.2;65
77700;DHT22;66867;42.658;23.320;2023-05-14T03:22:00;14.1;65
77700;DHT22;66867;42.658;23.320;2023-05-14T03:23:00;14.1;65
77700;DHT22;66867;42.658;23.320;2023-05-14T03:24:00;14.1;65
77700;DHT22;66867;42.658;23.320;2023-05-14T03:25:00;14.1;66
77700;DHT22;66867;42.658;23.320;2023-05-14T03:26:00;14.0;66
77700;DHT22;66867;42.658;23.320;2023-05-14T03:27:00;14.0;67
77700;DHT22;66867;42.658;23.320;2023-05-14T03:28:00;14.0;67
77700;DHT22;66867;42.658;23.320;2023-05-14T03:29:01;14.0;68
77700;DHT22;66867;42.658;23.320;2023-05-14T03:30:00;14.0;68
77700;DHT22;66867;42.658;23.320;2023-05-14T03:31:00;13.9;68
77700;DHT22;66867;42.658;23.320;2023-05-14T03:32:00;14.0;68
77700;DHT22;66867;42.658;23.320;2023-05-14T03:33:00;13.9;68
77700;DHT22;66867;42.658;23.320;2023-05-14T03:34:00;14.0;68
77700;DHT22;66867;42.658;23.320;2023-05-14T03:35:00;14.0;69
77700;DHT22;66867;42.658;23.320;2023-05-14T03:36:00;13.9;69
77700;DHT22;66867;42.658;23.320;2023-05-14T03:37:00;13.9;69
77700;DHT22;66867;42.658;23.320;2023-05-14T03:38:00;13.9;68
77700;DHT22;66867;42.658;23.320;2023-05-14T03:39:00;13.9;68
77700;DHT22;66867;42.658;23.320;2023-05-14T03:40:00;13.8;69
77700;DHT22;66867;42.658;23.320;2023-05-14T03:41:00;13.7;70
77700;DHT22;66867;42.658;23.320;2023-05-14T03:42:00;13.7;70
77700;DHT22;66867;42.658;23.320;2023-05-14T03:43:00;13.7;70
77700;DHT22;66867;42.658;23.320;2023-05-14T03:44:00;13.8;70
77700;DHT22;66867;42.658;23.320;2023-05-14T03:45:00;13.7;70
77700;DHT22;66867;42.658;23.320;2023-05-14T03:46:00;13.7;70
77700;DHT22;66867;42.658;23.320;2023-05-14T03:47:00;13.7;70
77700;DHT22;66867;42.658;23.320;2023-05-14T03:48:00;13.7;70
77700;DHT22;66867;42.658;23.320;2023-05-14T03:49:00;13.6;70
77700;DHT22;66867;42.658;23.320;2023-05-14T03:50:00;13.6;70
77700;DHT22;66867;42.658;23.320;2023-05-14T03:51:00;13.6;71
77700;DHT22;66867;42.658;23.320;2023-05-14T03:52:00;13.6;70
77700;DHT22;66867;42.658;23.320;2023-05-14T03:53:00;13.6;70
77700;DHT22;66867;42.658;23.320;2023-05-14T03:54:00;13.6;70
77700;DHT22;66867;42.658;23.320;2023-05-14T03:55:00;13.6;70
77700;DHT22;66867;42.658;23.320;2023-05-14T03:56:00;13.6;70
77700;DHT22;66867;42.658;23.320;2023-05-14T03:57:00;13.6;70
77700;DHT22;66867;42.658;23.320;2023-05-14T03:58:00;13.6;70
77700;DHT22;66867;42.658;23.320;2023-05-14T03:59:00;13.6;70
77700;DHT22;66867;42.658;23.320;2023-05-14T04:00:00;13.6;69
77700;DHT22;66867;42.658;23.320;2023-05-14T04:01:00;13.5;69
77700;DHT22;66867;42.658;23.320;2023-05-14T04:02:00;13.6;69
77700;DHT22;66867;42.658;23.320;2023-05-14T04:03:00;13.6;69
77700;DHT22;66867;42.658;23.320;2023-05-14T04:04:00;13.7;69
77700;DHT22;66867;42.658;23.320;2023-05-14T04:05:00;13.7;69
77700;DHT22;66867;42.658;23.320;2023-05-14T04:06:00;13.7;69
77700;DHT22;66867;42.658;23.320;2023-05-14T04:07:00;13.7;69
77700;DHT22;66867;42.658;23.320;2023-05-14T04:08:00;13.6;69
77700;DHT22;66867;42.658;23.320;2023-05-14T04:09:00;13.7;69
77700;DHT22;66867;42.658;23.320;2023-05-14T04:10:01;13.7;69
77700;DHT22;66867;42.658;23.320;2023-05-14T04:11:00;13.7;69
77700;DHT22;66867;42.658;23.320;2023-05-14T04:12:00;13.7;69
77700;DHT22;66867;42.658;23.320;2023-05-14T04:13:00;13.6;69
77700;DHT22;66867;42.658;23.320;2023-05-14T04:14:00;13.6;69
77700;DHT22;66867;42.658;23.320;2023-05-14T04:15:00;13.6;69
77700;DHT22;66867;42.658;23.320;2023-05-14T04:16:00;13.6;69
77700;DHT22;66867;42.658;23.320;2023-05-14T04:17:00;13.6;69
77700;DHT22;66867;42.658;23.320;2023-05-14T04:18:00;13.6;69
77700;DHT22;66867;42.658;23.320;2023-05-14T04:19:01;13.6;69
77700;DHT22;66867;42.658;23.320;2023-05-14T04:20:00;13.6;69
77700;DHT22;66867;42.658;23.320;2023-05-14T04:21:01;13.6;69
77700;DHT22;66867;42.658;23.320;2023-05-14T04:22:00;13.6;69
77700;DHT22;66867;42.658;23.320;2023-05-14T04:23:00;13.6;69
77700;DHT22;66867;42.658;23.320;2023-05-14T04:24:00;13.6;69
77700;DHT22;66867;42.658;23.320;2023-05-14T04:25:00;13.6;69
77700;DHT22;66867;42.658;23.320;2023-05-14T04:26:00;13.6;69
77700;DHT22;66867;42.658;23.320;2023-05-14T04:27:00;13.6;69
77700;DHT22;66867;42.658;23.320;2023-05-14T04:28:00;13.6;68
77700;DHT22;66867;42.658;23.320;2023-05-14T04:29:00;13.6;68
77700;DHT22;66867;42.658;23.320;2023-05-14T04:30:00;13.7;68
77700;DHT22;66867;42.658;23.320;2023-05-14T04:31:00;13.7;68
77700;DHT22;66867;42.658;23.320;2023-05-14T04:32:00;13.7;68
77700;DHT22;66867;42.658;23.320;2023-05-14T04:33:00;13.7;68
77700;DHT22;66867;42.658;23.320;2023-05-14T04:34:00;13.8;68
77700;DHT22;66867;42.658;23.320;2023-05-14T04:35:00;13.8;68
77700;DHT22;66867;42.658;23.320;2023-05-14T04:36:00;13.8;68
77700;DHT22;66867;42.658;23.320;2023-05-14T04:37:00;13.8;68
77700;DHT22;66867;42.658;23.320;2023-05-14T04:38:00;13.8;69
77700;DHT22;66867;42.658;23.320;2023-05-14T04:39:00;13.7;69
77700;DHT22;66867;42.658;23.320;2023-05-14T04:40:00;13.8;69
77700;DHT22;66867;42.658;23.320;2023-05-14T04:41:00;13.7;69
77700;DHT22;66867;42.658;23.320;2023-05-14T04:42:00;13.8;70
77700;DHT22;66867;42.658;23.320;2023-05-14T04:43:00;13.7;70
77700;DHT22;66867;42.658;23.320;2023-05-14T04:44:01;13.8;70
77700;DHT22;66867;42.658;23.320;2023-05-14T04:45:00;13.7;70
77700;DHT22;66867;42.658;23.320;2023-05-14T04:46:00;13.8;70
77700;DHT22;66867;42.658;23.320;2023-05-14T04:47:00;13.8;71
77700;DHT22;66867;42.658;23.320;2023-05-14T04:48:01;13.8;71
77700;DHT22;66867;42.658;23.320;2023-05-14T04:49:00;13.7;71
77700;DHT22;66867;42.658;23.320;2023-05-14T04:50:00;13.7;71
77700;DHT22;66867;42.658;23.320;2023-05-14T04:51:00;13.7;72
77700;DHT22;66867;42.658;23.320;2023-05-14T04:52:00;13.7;72
77700;DHT22;66867;42.658;23.320;2023-05-14T04:53:00;13.7;72
77700;DHT22;66867;42.658;23.320;2023-05-14T04:54:00;13.7;72
77700;DHT22;66867;42.658;23.320;2023-05-14T04:55:00;13.6;72
77700;DHT22;66867;42.658;23.320;2023-05-14T04:56:00;13.6;72
77700;DHT22;66867;42.658;23.320;2023-05-14T04:57:00;13.6;72
77700;DHT22;66867;42.658;23.320;2023-05-14T04:58:00;13.7;72
77700;DHT22;66867;42.658;23.320;2023-05-14T04:59:00;13.6;73
77700;DHT22;66867;42.658;23.320;2023-05-14T05:00:00;13.6;73
77700;DHT22;66867;42.658;23.320;2023-05-14T05:01:01;13.6;73
77700;DHT22;66867;42.658;23.320;2023-05-14T05:02:00;13.6;73
77700;DHT22;66867;42.658;23.320;2023-05-14T05:03:00;13.6;72
77700;DHT22;66867;42.658;23.320;2023-05-14T05:04:00;13.6;73
77700;DHT22;66867;42.658;23.320;2023-05-14T05:05:00;13.6;74
77700;DHT22;66867;42.658;23.320;2023-05-14T05:06:00;13.6;73
77700;DHT22;66867;42.658;23.320;2023-05-14T05:07:00;13.5;73
77700;DHT22;66867;42.658;23.320;2023-05-14T05:08:00;13.5;74
77700;DHT22;66867;42.658;23.320;2023-05-14T05:09:00;13.4;74
77700;DHT22;66867;42.658;23.320;2023-05-14T05:10:00;13.5;74
77700;DHT22;66867;42.658;23.320;2023-05-14T05:11:00;13.5;74
77700;DHT22;66867;42.658;23.320;2023-05-14T05:12:00;13.5;74
77700;DHT22;66867;42.658;23.320;2023-05-14T05:13:00;13.5;75
77700;DHT22;66867;42.658;23.320;2023-05-14T05:14:00;13.4;75
77700;DHT22;66867;42.658;23.320;2023-05-14T05:15:00;13.4;75
77700;DHT22;66867;42.658;23.320;2023-05-14T05:16:00;13.4;75
77700;DHT22;66867;42.658;23.320;2023-05-14T05:17:00;13.3;75
77700;DHT22;66867;42.658;23.320;2023-05-14T05:18:00;13.4;76
77700;DHT22;66867;42.658;23.320;2023-05-14T05:19:00;13.4;76
77700;DHT22;66867;42.658;23.320;2023-05-14T05:20:00;13.3;76
77700;DHT22;66867;42.658;23.320;2023-05-14T05:21:00;13.3;76
77700;DHT22;66867;42.658;23.320;2023-05-14T05:22:00;13.4;76
77700;DHT22;66867;42.658;23.320;2023-05-14T05:23:00;13.3;76
77700;DHT22;66867;42.658;23.320;2023-05-14T05:24:00;13.4;76
77700;DHT22;66867;42.658;23.320;2023-05-14T05:25:00;13.4;77
77700;DHT22;66867;42.658;23.320;2023-05-14T05:26:00;13.4;77
77700;DHT22;66867;42.658;23.320;2023-05-14T05:27:00;13.4;77
77700;DHT22;66867;42.658;23.320;2023-05-14T05:28:00;13.4;78
77700;DHT22;66867;42.658;23.320;2023-05-14T05:29:00;13.4;77
77700;DHT22;66867;42.658;23.320;2023-05-14T05:30:00;13.4;78
77700;DHT22;66867;42.658;23.320;2023-05-14T05:31:00;13.5;78
77700;DHT22;66867;42.658;23.320;2023-05-14T05:32:00;13.4;78
77700;DHT22;66867;42.658;23.320;2023-05-14T05:33:00;13.4;78
77700;DHT22;66867;42.658;23.320;2023-05-14T05:34:02;13.5;78
77700;DHT22;66867;42.658;23.320;2023-05-14T05:35:00;13.5;78
77700;DHT22;66867;42.658;23.320;2023-05-14T05:36:00;13.5;78
77700;DHT22;66867;42.658;23.320;2023-05-14T05:37:00;13.6;78
77700;DHT22;66867;42.658;23.320;2023-05-14T05:38:00;13.6;78
77700;DHT22;66867;42.658;23.320;2023-05-14T05:39:00;13.6;78
77700;DHT22;66867;42.658;23.320;2023-05-14T05:40:00;13.5;78
77700;DHT22;66867;42.658;23.320;2023-05-14T05:41:00;13.6;78
77700;DHT22;66867;42.658;23.320;2023-05-14T05:42:01;13.6;79
77700;DHT22;66867;42.658;23.320;2023-05-14T05:43:00;13.5;78
77700;DHT22;66867;42.658;23.320;2023-05-14T05:44:00;13.5;78
77700;DHT22;66867;42.658;23.320;2023-05-14T05:45:00;13.5;78
77700;DHT22;66867;42.658;23.320;2023-05-14T05:46:00;13.4;79
77700;DHT22;66867;42.658;23.320;2023-05-14T05:47:00;13.5;79
77700;DHT22;66867;42.658;23.320;2023-05-14T05:48:00;13.4;79
77700;DHT22;66867;42.658;23.320;2023-05-14T05:49:00;13.4;79
77700;DHT22;66867;42.658;23.320;2023-05-14T05:50:00;13.3;79
77700;DHT22;66867;42.658;23.320;2023-05-14T05:51:00;13.3;79
77700;DHT22;66867;42.658;23.320;2023-05-14T05:52:00;13.3;80
77700;DHT22;66867;42.658;23.320;2023-05-14T05:53:00;13.3;80
77700;DHT22;66867;42.658;23.320;2023-05-14T05:54:00;13.3;80
77700;DHT22;66867;42.658;23.320;2023-05-14T05:55:00;13.2;81
77700;DHT22;66867;42.658;23.320;2023-05-14T05:56:00;13.2;81
77700;DHT22;66867;42.658;23.320;2023-05-14T05:57:00;13.1;82
77700;DHT22;66867;42.658;23.320;2023-05-14T05:58:00;13.1;81
77700;DHT22;66867;42.658;23.320;2023-05-14T05:59:00;13.1;81
77700;DHT22;66867;42.658;23.320;2023-05-14T06:00:00;13.0;81
77700;DHT22;66867;42.658;23.320;2023-05-14T06:01:00;13.0;81
77700;DHT22;66867;42.658;23.320;2023-05-14T06:02:00;13.0;81
77700;DHT22;66867;42.658;23.320;2023-05-14T06:03:00;13.0;82
77700;DHT22;66867;42.658;23.320;2023-05-14T06:04:00;13.0;82
77700;DHT22;66867;42.658;23.320;2023-05-14T06:05:00;13.0;82
77700;DHT22;66867;42.658;23.320;2023-05-14T06:06:00;12.9;82
77700;DHT22;66867;42.658;23.320;2023-05-14T06:07:00;13.0;82
77700;DHT22;66867;42.658;23.320;2023-05-14T06:08:00;12.9;83
77700;DHT22;66867;42.658;23.320;2023-05-14T06:09:00;12.9;82
77700;DHT22;66867;42.658;23.320;2023-05-14T06:10:00;12.9;82
77700;DHT22;66867;42.658;23.320;2023-05-14T06:11:00;12.9;82
77700;DHT22;66867;42.658;23.320;2023-05-14T06:12:00;12.8;82
77700;DHT22;66867;42.658;23.320;2023-05-14T06:13:00;12.9;81
77700;DHT22;66867;42.658;23.320;2023-05-14T06:14:00;12.8;82
77700;DHT22;66867;42.658;23.320;2023-05-14T06:15:00;12.8;81
77700;DHT22;66867;42.658;23.320;2023-05-14T06:16:00;12.9;81
77700;DHT22;66867;42.658;23.320;2023-05-14T06:17:00;12.8;82
77700;DHT22;66867;42.658;23.320;2023-05-14T06:18:00;12.8;82
77700;DHT22;66867;42.658;23.320;2023-05-14T06:19:00;12.8;83
77700;DHT22;66867;42.658;23.320;2023-05-14T06:20:00;12.8;82
77700;DHT22;66867;42.658;23.320;2023-05-14T06:21:00;12.8;82
77700;DHT22;66867;42.658;23.320;2023-05-14T06:22:00;12.8;83
77700;DHT22;66867;42.658;23.320;2023-05-14T06:23:00;12.8;82
77700;DHT22;66867;42.658;23.320;2023-05-14T06:24:00;12.8;82
77700;DHT22;66867;42.658;23.320;2023-05-14T06:25:00;12.8;82
77700;DHT22;66867;42.658;23.320;2023-05-14T06:26:00;12.8;82
77700;DHT22;66867;42.658;23.320;2023-05-14T06:27:00;12.9;82
77700;DHT22;66867;42.658;23.320;2023-05-14T06:28:00;12.8;82
77700;DHT22;66867;42.658;23.320;2023-05-14T06:29:00;12.8;82
77700;DHT22;66867;42.658;23.320;2023-05-14T06:30:00;12.8;82
77700;DHT22;66867;42.658;23.320;2023-05-14T06:31:00;12.7;83
77700;DHT22;66867;42.658;23.320;2023-05-14T06:32:00;12.8;83
77700;DHT22;66867;42.658;23.320;2023-05-14T06:33:00;12.8;82
77700;DHT22;66867;42.658;23.320;2023-05-14T06:34:00;12.7;82
77700;DHT22;66867;42.658;23.320;2023-05-14T06:35:00;12.6;83
77700;DHT22;66867;42.658;23.320;2023-05-14T06:36:02;12.7;83
77700;DHT22;66867;42.658;23.320;2023-05-14T06:37:00;12.6;83
77700;DHT22;66867;42.658;23.320;2023-05-14T06:38:00;12.7;83
77700;DHT22;66867;42.658;23.320;2023-05-14T06:39:00;12.6;82
77700;DHT22;66867;42.658;23.320;2023-05-14T06:40:00;12.6;82
77700;DHT22;66867;42.658;23.320;2023-05-14T06:41:00;12.6;82
77700;DHT22;66867;42.658;23.320;2023-05-14T06:43:00;12.4;84
77700;DHT22;66867;42.658;23.320;2023-05-14T06:44:00;12.4;84
77700;DHT22;66867;42.658;23.320;2023-05-14T06:45:00;12.4;84
77700;DHT22;66867;42.658;23.320;2023-05-14T06:46:00;12.3;84